createdAt,value
2022-09-03T00:03:56.029Z,100.00
2022-09-03T00:08:06.054Z,100.00
2022-09-03T00:12:28.163Z,100.00
2022-09-03T00:16:54.748Z,100.00
2022-09-03T00:21:08.751Z,100.00
2022-09-03T00:25:39.459Z,100.00
2022-09-03T00:30:04.144Z,100.00
2022-09-03T00:34:22.302Z,100.00
2022-09-03T00:38:24.702Z,100.00
2022-09-03T00:42:31.183Z,100.00
2022-09-03T00:46:53.488Z,100.00
2022-09-03T00:51:04.898Z,100.00
2022-09-03T00:55:39.088Z,100.00
2022-09-03T00:59:59.086Z,100.00
2022-09-03T01:04:29.054Z,100.00
2022-09-03T01:08:37.125Z,100.00
2022-09-03T01:13:06.009Z,100.00
2022-09-03T01:17:16.315Z,100.00
2022-09-03T01:21:49.488Z,100.00
2022-09-03T01:25:54.872Z,100.00
2022-09-03T01:30:04.818Z,100.00
2022-09-03T01:34:24.384Z,100.00
2022-09-03T01:39:02.045Z,100.00
2022-09-03T01:43:45.657Z,100.00
2022-09-03T01:48:20.642Z,100.00
2022-09-03T01:52:46.802Z,100.00
2022-09-03T01:57:07.200Z,100.00
2022-09-03T02:01:28.156Z,100.00
2022-09-03T02:05:30.576Z,100.00
2022-09-03T02:09:33.111Z,100.00
2022-09-03T02:14:05.060Z,100.00
2022-09-03T02:18:14.193Z,100.00
2022-09-03T02:22:22.686Z,100.00
2022-09-03T02:26:25.483Z,100.00
2022-09-03T02:30:27.912Z,100.00
2022-09-03T02:34:31.084Z,100.00
2022-09-03T02:38:33.489Z,100.00
2022-09-03T02:42:35.707Z,100.00
2022-09-03T02:46:46.138Z,100.00
2022-09-03T02:50:48.633Z,100.00
2022-09-03T02:54:51.306Z,100.00
2022-09-03T02:58:53.939Z,100.00
2022-09-03T03:02:56.385Z,100.00
2022-09-03T03:06:59.237Z,100.00
2022-09-03T03:11:02.336Z,100.00
2022-09-03T03:15:04.803Z,100.00
2022-09-03T03:19:07.106Z,100.00
2022-09-03T03:23:10.464Z,100.00
2022-09-03T03:27:15.046Z,100.00
2022-09-03T03:31:20.981Z,100.00
2022-09-03T03:35:23.927Z,100.00
2022-09-03T03:39:26.039Z,100.00
2022-09-03T03:43:28.464Z,100.00
2022-09-03T03:47:33.680Z,100.00
2022-09-03T03:51:37.524Z,100.00
2022-09-03T03:55:39.901Z,100.00
2022-09-03T03:59:42.250Z,100.00
2022-09-03T04:03:44.962Z,100.00
2022-09-03T04:07:47.271Z,100.00
2022-09-03T04:11:50.642Z,100.00
2022-09-03T04:16:10.961Z,100.00
2022-09-03T04:20:13.192Z,100.00
2022-09-03T04:24:15.487Z,100.00
2022-09-03T04:28:17.561Z,100.00
2022-09-03T04:32:38.530Z,100.00
2022-09-03T04:36:40.596Z,100.00
2022-09-03T04:40:43.245Z,100.00
2022-09-03T04:44:45.346Z,100.00
2022-09-03T04:48:51.447Z,100.00
2022-09-03T04:52:56.549Z,100.00
2022-09-03T04:56:58.885Z,100.00
2022-09-03T05:01:08.386Z,100.00
2022-09-03T05:05:10.780Z,100.00
2022-09-03T05:09:12.904Z,100.00
2022-09-03T05:13:15.426Z,100.00
2022-09-03T05:17:18.855Z,100.00
2022-09-03T05:21:22.591Z,100.00
2022-09-03T05:25:25.122Z,100.00
2022-09-03T05:29:28.005Z,100.00
2022-09-03T05:33:41.685Z,100.00
2022-09-03T05:37:44.210Z,100.00
2022-09-03T05:41:46.463Z,100.00
2022-09-03T05:45:49.218Z,100.00
2022-09-03T05:49:51.359Z,100.00
2022-09-03T05:53:55.794Z,100.00
2022-09-03T05:57:57.812Z,100.00
2022-09-03T06:02:00.696Z,100.00
2022-09-03T06:06:05.201Z,100.00
2022-09-03T06:10:07.995Z,100.00
2022-09-03T06:14:12.718Z,100.00
2022-09-03T06:18:15.109Z,100.00
2022-09-03T06:22:17.350Z,100.00
2022-09-03T06:26:21.102Z,100.00
2022-09-03T06:30:24.375Z,100.00
2022-09-03T06:34:27.449Z,100.00
2022-09-03T06:38:37.932Z,100.00
2022-09-03T06:42:45.879Z,100.00
2022-09-03T06:46:48.665Z,100.00
2022-09-03T06:51:04.395Z,100.00
2022-09-03T06:55:06.978Z,100.00
2022-09-03T06:59:15.326Z,100.00
2022-09-03T07:03:18.031Z,100.00
2022-09-03T07:07:20.302Z,100.00
2022-09-03T07:11:25.657Z,100.00
2022-09-03T07:15:28.553Z,100.00
2022-09-03T07:19:30.645Z,100.00
2022-09-03T07:23:34.519Z,100.00
2022-09-03T07:27:36.786Z,100.00
2022-09-03T07:31:41.372Z,100.00
2022-09-03T07:35:43.616Z,100.00
2022-09-03T07:39:47.064Z,100.00
2022-09-03T07:43:49.585Z,100.00
2022-09-03T07:47:51.818Z,100.00
2022-09-03T07:51:55.502Z,100.00
2022-09-03T07:56:10.826Z,100.00
2022-09-03T08:00:13.781Z,100.00
2022-09-03T08:04:16.254Z,100.00
2022-09-03T08:08:18.406Z,100.00
2022-09-03T08:12:22.870Z,100.00
2022-09-03T08:16:25.120Z,96.02
2022-09-03T08:20:28.481Z,88.35
2022-09-03T08:24:34.452Z,87.07
2022-09-03T08:28:38.400Z,81.31
2022-09-03T08:32:40.901Z,81.52
2022-09-03T08:36:43.412Z,75.43
2022-09-03T08:40:45.833Z,61.12
2022-09-03T08:44:58.912Z,69.35
2022-09-03T08:49:01.820Z,61.54
2022-09-03T08:53:09.918Z,63.23
2022-09-03T08:57:13.839Z,59.64
2022-09-03T09:01:24.699Z,59.91
2022-09-03T09:05:51.667Z,56.20
2022-09-03T09:10:07.047Z,54.79
2022-09-03T09:14:18.157Z,50.95
2022-09-03T09:18:45.884Z,49.90
2022-09-03T09:22:56.725Z,52.43
2022-09-03T09:27:00.628Z,53.44
2022-09-03T09:31:05.300Z,47.84
2022-09-03T09:35:10.625Z,49.56
2022-09-03T09:39:15.999Z,50.17
2022-09-03T09:43:22.242Z,52.02
2022-09-03T09:47:31.212Z,48.56
2022-09-03T09:51:33.556Z,49.47
2022-09-03T09:55:39.212Z,49.39
2022-09-03T09:59:42.282Z,46.25
2022-09-03T10:03:56.363Z,48.90
2022-09-03T10:08:01.775Z,45.27
2022-09-03T10:12:34.326Z,47.61
2022-09-03T10:16:48.548Z,45.99
2022-09-03T10:21:07.819Z,43.29
2022-09-03T10:25:10.366Z,45.98
2022-09-03T10:29:18.994Z,44.97
2022-09-03T10:33:39.563Z,45.09
2022-09-03T10:37:51.171Z,45.22
2022-09-03T10:42:11.451Z,41.91
2022-09-03T10:46:24.190Z,43.51
2022-09-03T10:50:42.023Z,44.84
2022-09-03T10:55:03.647Z,41.53
2022-09-03T10:59:29.272Z,43.96
2022-09-03T11:03:45.143Z,42.07
2022-09-03T11:07:59.882Z,40.73
2022-09-03T11:12:11.747Z,41.53
2022-09-03T11:16:20.155Z,42.91
2022-09-03T11:20:24.926Z,43.28
2022-09-03T11:24:33.201Z,42.12
2022-09-03T11:28:46.086Z,42.83
2022-09-03T11:33:00.751Z,43.04
2022-09-03T11:37:13.787Z,41.03
2022-09-03T11:41:27.235Z,38.85
2022-09-03T11:45:32.028Z,42.63
2022-09-03T11:49:46.129Z,41.86
2022-09-03T11:53:59.773Z,42.47
2022-09-03T11:58:13.675Z,42.27
2022-09-03T12:02:23.938Z,44.33
2022-09-03T12:06:57.238Z,42.31
2022-09-03T12:11:21.106Z,44.26
2022-09-03T12:16:02.006Z,43.12
2022-09-03T12:20:13.509Z,42.20
2022-09-03T12:24:16.682Z,43.46
2022-09-03T12:28:26.042Z,42.80
2022-09-03T12:32:32.564Z,41.05
2022-09-03T12:36:40.187Z,41.98
2022-09-03T12:45:16.417Z,44.83
2022-09-03T12:49:33.919Z,41.53
2022-09-03T12:53:36.163Z,40.93
2022-09-03T12:57:45.786Z,42.32
2022-09-03T13:01:56.267Z,41.67
2022-09-03T13:06:06.498Z,42.19
2022-09-03T13:10:25.509Z,43.22
2022-09-03T13:14:27.679Z,42.88
2022-09-03T13:19:03.992Z,39.38
2022-09-03T13:23:09.136Z,41.39
2022-09-03T13:27:34.293Z,41.81
2022-09-03T13:31:46.602Z,40.75
2022-09-03T13:36:42.606Z,39.77
2022-09-03T13:40:54.831Z,40.89
2022-09-03T13:45:06.500Z,40.72
2022-09-03T13:50:02.602Z,42.07
2022-09-03T13:54:36.307Z,40.33
2022-09-03T13:58:54.329Z,40.07
2022-09-03T14:07:15.938Z,39.98
2022-09-03T14:11:35.324Z,40.67
2022-09-03T14:15:55.963Z,37.39
2022-09-03T14:20:08.008Z,38.88
2022-09-03T14:24:36.527Z,39.17
2022-09-03T14:28:44.372Z,39.34
2022-09-03T14:33:03.749Z,38.49
2022-09-03T14:37:36.785Z,38.28
2022-09-03T14:41:51.261Z,40.54
2022-09-03T14:46:05.769Z,38.91
2022-09-03T14:50:31.252Z,38.98
2022-09-03T14:55:08.029Z,38.85
2022-09-03T14:59:38.199Z,39.50
2022-09-03T15:04:07.363Z,38.34
2022-09-03T15:08:32.826Z,39.50
2022-09-03T15:12:43.506Z,40.36
2022-09-03T15:17:01.186Z,40.87
2022-09-03T15:21:28.781Z,36.51
2022-09-03T15:26:00.344Z,39.96
2022-09-03T15:30:06.564Z,33.67
2022-09-03T15:34:27.471Z,32.01
2022-09-03T15:38:32.392Z,32.22
2022-09-03T15:42:37.407Z,31.49
2022-09-03T15:46:45.277Z,26.14
2022-09-03T15:51:10.267Z,28.55
2022-09-03T15:55:25.665Z,27.67
2022-09-03T15:59:51.396Z,28.27
2022-09-03T16:03:56.248Z,32.00
2022-09-03T16:08:21.693Z,35.95
2022-09-03T16:12:35.003Z,37.25
2022-09-03T16:16:58.127Z,38.27
2022-09-03T16:21:12.556Z,40.99
2022-09-03T16:25:24.590Z,43.75
2022-09-03T16:29:31.930Z,44.90
2022-09-03T16:33:40.245Z,43.88
2022-09-03T16:38:04.448Z,48.24
2022-09-03T16:42:22.290Z,49.92
2022-09-03T16:46:35.876Z,50.78
2022-09-03T16:50:55.597Z,57.44
2022-09-03T16:55:08.286Z,56.62
2022-09-03T16:59:10.804Z,77.56
2022-09-03T17:03:31.772Z,82.75
2022-09-03T17:08:05.389Z,89.00
2022-09-03T17:12:33.636Z,100.00
2022-09-03T17:16:59.562Z,100.00
2022-09-03T17:21:12.279Z,100.00
2022-09-03T17:25:24.301Z,100.00
2022-09-03T17:29:47.699Z,100.00
2022-09-03T17:34:02.159Z,100.00
2022-09-03T17:38:12.263Z,100.00
2022-09-03T17:42:42.770Z,100.00
2022-09-03T17:46:57.192Z,100.00
2022-09-03T17:51:06.228Z,100.00
2022-09-03T17:55:24.372Z,100.00
2022-09-03T17:59:45.661Z,100.00
2022-09-03T18:04:11.800Z,100.00
2022-09-03T18:08:51.778Z,100.00
2022-09-03T18:13:03.772Z,100.00
2022-09-03T18:17:29.228Z,100.00
2022-09-03T18:21:56.069Z,100.00
2022-09-03T18:26:24.477Z,100.00
2022-09-03T18:30:46.670Z,100.00
2022-09-03T18:35:08.576Z,100.00
2022-09-03T18:39:45.141Z,100.00
2022-09-03T18:44:19.458Z,100.00
2022-09-03T18:48:54.152Z,100.00
2022-09-03T18:53:21.401Z,100.00
2022-09-03T18:57:50.386Z,100.00
2022-09-03T19:02:12.948Z,100.00
2022-09-03T19:07:26.410Z,100.00
2022-09-03T19:12:00.695Z,100.00
2022-09-03T19:16:28.356Z,100.00
2022-09-03T19:20:53.451Z,100.00
2022-09-03T19:25:26.077Z,100.00
2022-09-03T19:30:04.259Z,100.00
2022-09-03T19:34:45.720Z,100.00
2022-09-03T19:39:18.737Z,100.00
2022-09-03T19:43:46.375Z,100.00
2022-09-03T19:48:20.517Z,100.00
2022-09-03T19:53:02.646Z,100.00
2022-09-03T19:57:27.435Z,100.00
2022-09-03T20:01:56.375Z,100.00
2022-09-03T20:06:20.935Z,100.00
2022-09-03T20:10:25.126Z,100.00
2022-09-03T20:14:27.722Z,100.00
2022-09-03T20:18:48.178Z,100.00
2022-09-03T20:23:18.887Z,100.00
2022-09-03T20:27:45.274Z,100.00
2022-09-03T20:32:07.783Z,100.00
2022-09-03T20:36:12.711Z,100.00
2022-09-03T20:40:21.114Z,100.00
2022-09-03T20:44:52.824Z,100.00
2022-09-03T20:49:03.918Z,100.00
2022-09-03T20:53:09.043Z,100.00
2022-09-03T20:57:23.159Z,100.00
2022-09-03T21:02:05.316Z,100.00
2022-09-03T21:06:26.147Z,100.00
2022-09-03T21:10:37.757Z,100.00
2022-09-03T21:14:47.028Z,100.00
2022-09-03T21:19:01.170Z,100.00
2022-09-03T21:23:16.617Z,100.00
2022-09-03T21:27:26.853Z,100.00
2022-09-03T21:31:38.725Z,100.00
2022-09-03T21:35:41.415Z,100.00
2022-09-03T21:40:19.905Z,100.00
2022-09-03T21:44:55.682Z,100.00
2022-09-03T21:49:06.935Z,100.00
2022-09-03T21:53:26.203Z,100.00
2022-09-03T21:57:34.063Z,100.00
2022-09-03T22:01:48.352Z,100.00
2022-09-03T22:05:59.591Z,100.00
2022-09-03T22:10:18.014Z,100.00
2022-09-03T22:14:24.908Z,100.00
2022-09-03T22:18:38.348Z,100.00
2022-09-03T22:22:58.150Z,100.00
2022-09-03T22:27:22.871Z,100.00
2022-09-03T22:31:37.619Z,100.00
2022-09-03T22:36:03.118Z,100.00
2022-09-03T22:40:26.128Z,100.00
2022-09-03T22:44:47.171Z,100.00
2022-09-03T22:49:01.378Z,100.00
2022-09-03T22:53:31.518Z,100.00
2022-09-03T22:57:39.484Z,100.00
2022-09-03T23:01:48.264Z,100.00
2022-09-03T23:05:56.957Z,100.00
2022-09-03T23:10:06.879Z,100.00
2022-09-03T23:14:15.028Z,100.00
2022-09-03T23:18:27.492Z,100.00
2022-09-03T23:22:54.666Z,100.00
2022-09-03T23:27:00.761Z,100.00
2022-09-03T23:31:20.072Z,100.00
2022-09-03T23:35:24.606Z,100.00
2022-09-03T23:40:10.154Z,100.00
2022-09-03T23:44:37.257Z,100.00
2022-09-03T23:49:05.316Z,100.00
2022-09-03T23:53:41.741Z,100.00
2022-09-03T23:58:06.224Z,100.00
